createdAt,value
2022-11-22T00:02:28.526Z,91.51
2022-11-22T00:05:32.125Z,91.06
2022-11-22T00:08:34.578Z,90.89
2022-11-22T00:11:37.663Z,90.74
2022-11-22T00:14:40.190Z,90.41
2022-11-22T00:17:43.268Z,90.55
2022-11-22T00:20:45.740Z,90.34
2022-11-22T00:23:49.018Z,90.37
2022-11-22T00:26:51.651Z,89.75
2022-11-22T00:29:54.782Z,89.85
2022-11-22T00:32:57.158Z,89.45
2022-11-22T00:36:00.191Z,89.21
2022-11-22T00:39:02.792Z,88.68
2022-11-22T00:42:05.920Z,89.05
2022-11-22T00:45:08.851Z,89.32
2022-11-22T00:48:11.903Z,89.56
2022-11-22T00:51:14.483Z,89.66
2022-11-22T00:54:17.684Z,89.63
2022-11-22T00:57:20.195Z,89.66
2022-11-22T01:00:23.268Z,89.91
2022-11-22T01:03:26.378Z,90.32
2022-11-22T01:06:29.449Z,90.41
2022-11-22T01:09:32.276Z,90.55
2022-11-22T01:12:35.630Z,90.84
2022-11-22T01:15:38.017Z,90.66
2022-11-22T01:18:41.422Z,89.59
2022-11-22T01:21:44.095Z,90.16
2022-11-22T01:24:47.132Z,90.12
2022-11-22T01:27:51.023Z,89.99
2022-11-22T01:30:54.712Z,89.71
2022-11-22T01:33:58.961Z,89.89
2022-11-22T01:37:02.103Z,90.05
2022-11-22T01:40:05.057Z,90.33
2022-11-22T01:43:20.861Z,90.34
2022-11-22T01:46:43.544Z,90.54
2022-11-22T01:50:00.470Z,90.66
2022-11-22T01:53:07.347Z,90.92
2022-11-22T01:56:16.584Z,90.78
2022-11-22T01:59:22.593Z,90.99
2022-11-22T02:02:25.833Z,91.35
2022-11-22T02:05:32.932Z,91.95
2022-11-22T02:08:54.668Z,92.41
2022-11-22T02:12:01.428Z,93.21
2022-11-22T02:15:04.698Z,93.81
2022-11-22T02:18:07.538Z,94.18
2022-11-22T02:21:10.626Z,94.12
2022-11-22T02:24:29.830Z,93.66
2022-11-22T02:27:32.619Z,93.41
2022-11-22T02:30:39.930Z,93.62
2022-11-22T02:33:42.770Z,93.60
2022-11-22T02:36:51.366Z,93.58
2022-11-22T02:40:01.327Z,93.32
2022-11-22T02:43:07.991Z,93.14
2022-11-22T02:46:12.998Z,92.63
2022-11-22T02:49:20.684Z,92.18
2022-11-22T02:52:23.440Z,92.05
2022-11-22T02:55:26.246Z,92.03
2022-11-22T02:58:29.055Z,91.89
2022-11-22T03:01:31.960Z,91.36
2022-11-22T03:04:34.930Z,90.87
2022-11-22T03:07:37.861Z,90.90
2022-11-22T03:10:40.708Z,90.87
2022-11-22T03:13:43.492Z,90.03
2022-11-22T03:16:47.457Z,89.00
2022-11-22T03:19:50.298Z,89.54
2022-11-22T03:22:53.233Z,89.79
2022-11-22T03:25:55.982Z,90.13
2022-11-22T03:28:59.010Z,90.24
2022-11-22T03:32:02.084Z,90.22
2022-11-22T03:35:05.324Z,90.18
2022-11-22T03:38:08.074Z,90.03
2022-11-22T03:41:10.778Z,90.24
2022-11-22T03:44:13.544Z,89.97
2022-11-22T03:47:16.417Z,89.92
2022-11-22T03:50:19.186Z,89.74
2022-11-22T03:53:23.207Z,89.58
2022-11-22T03:56:25.999Z,88.76
2022-11-22T03:59:28.937Z,88.77
2022-11-22T04:02:31.769Z,88.73
2022-11-22T04:05:34.862Z,88.49
2022-11-22T04:08:37.487Z,87.84
2022-11-22T04:11:40.567Z,85.88
2022-11-22T04:15:01.684Z,84.98
2022-11-22T04:18:04.962Z,84.48
2022-11-22T04:21:25.946Z,84.46
2022-11-22T04:24:47.621Z,84.45
2022-11-22T04:27:50.122Z,84.08
2022-11-22T04:31:11.816Z,84.48
2022-11-22T04:34:14.298Z,84.27
2022-11-22T04:37:17.366Z,84.05
2022-11-22T04:40:19.826Z,84.12
2022-11-22T04:43:43.642Z,84.28
2022-11-22T04:46:46.181Z,84.28
2022-11-22T04:49:49.234Z,84.08
2022-11-22T04:52:54.402Z,83.99
2022-11-22T04:55:57.892Z,83.17
2022-11-22T04:59:00.417Z,83.05
2022-11-22T05:02:03.633Z,82.57
2022-11-22T05:05:06.501Z,82.40
2022-11-22T05:08:09.736Z,82.85
2022-11-22T05:11:12.296Z,82.54
2022-11-22T05:14:15.662Z,82.49
2022-11-22T05:17:18.130Z,82.71
2022-11-22T05:20:21.170Z,82.37
2022-11-22T05:23:42.602Z,82.47
2022-11-22T05:26:45.903Z,82.37
2022-11-22T05:29:48.370Z,82.46
2022-11-22T05:32:51.423Z,82.49
2022-11-22T05:35:59.592Z,82.40
2022-11-22T05:39:03.404Z,82.50
2022-11-22T05:42:06.020Z,82.18
2022-11-22T05:45:09.626Z,82.15
2022-11-22T05:48:12.147Z,82.30
2022-11-22T05:51:18.133Z,82.63
2022-11-22T05:54:20.703Z,82.74
2022-11-22T05:57:23.825Z,82.76
2022-11-22T06:00:26.595Z,82.70
2022-11-22T06:03:29.725Z,82.90
2022-11-22T06:06:32.598Z,82.04
2022-11-22T06:09:35.678Z,82.56
2022-11-22T06:12:38.075Z,82.40
2022-11-22T06:15:41.296Z,82.72
2022-11-22T06:18:44.112Z,81.96
2022-11-22T06:21:47.256Z,82.08
2022-11-22T06:24:49.845Z,82.02
2022-11-22T06:27:53.025Z,81.92
2022-11-22T06:31:02.205Z,81.13
2022-11-22T06:34:05.515Z,81.19
2022-11-22T06:37:08.024Z,80.44
2022-11-22T06:40:12.409Z,80.36
2022-11-22T06:43:15.067Z,80.45
2022-11-22T06:46:20.252Z,80.11
2022-11-22T06:49:22.756Z,79.83
2022-11-22T06:52:26.627Z,79.55
2022-11-22T06:55:49.654Z,78.42
2022-11-22T06:58:53.224Z,78.01
2022-11-22T07:01:56.658Z,77.78
2022-11-22T07:05:24.589Z,78.62
2022-11-22T07:08:25.261Z,79.00
2022-11-22T07:11:30.257Z,78.72
2022-11-22T07:14:32.789Z,79.04
2022-11-22T07:17:35.933Z,79.05
2022-11-22T07:20:38.496Z,78.73
2022-11-22T07:23:43.666Z,78.88
2022-11-22T07:26:46.209Z,78.01
2022-11-22T07:29:49.449Z,78.87
2022-11-22T07:32:52.126Z,78.79
2022-11-22T07:35:55.636Z,79.14
2022-11-22T07:38:58.247Z,79.00
2022-11-22T07:42:01.797Z,78.46
2022-11-22T07:45:05.011Z,78.60
2022-11-22T07:48:08.142Z,79.11
2022-11-22T07:51:10.645Z,78.53
2022-11-22T07:54:13.826Z,78.98
2022-11-22T07:57:16.285Z,79.04
2022-11-22T08:00:20.235Z,78.87
2022-11-22T08:03:28.811Z,77.93
2022-11-22T08:06:32.244Z,77.66
2022-11-22T08:09:35.740Z,77.46
2022-11-22T08:12:38.305Z,76.98
2022-11-22T08:15:41.147Z,76.65
2022-11-22T08:18:48.652Z,76.60
2022-11-22T08:21:55.444Z,76.73
2022-11-22T08:25:01.009Z,76.55
2022-11-22T08:28:03.848Z,75.86
2022-11-22T08:31:09.319Z,76.02
2022-11-22T08:34:12.091Z,76.43
2022-11-22T08:37:14.906Z,75.60
2022-11-22T08:40:17.856Z,76.06
2022-11-22T08:43:20.855Z,75.87
2022-11-22T08:46:23.565Z,75.55
2022-11-22T08:49:26.343Z,75.60
2022-11-22T08:52:29.234Z,75.62
2022-11-22T08:55:32.064Z,75.42
2022-11-22T08:58:35.158Z,74.71
2022-11-22T09:01:38.159Z,74.08
2022-11-22T09:04:41.150Z,73.58
2022-11-22T09:11:10.344Z,73.71
2022-11-22T09:14:13.342Z,73.94
2022-11-22T09:17:18.148Z,72.40
2022-11-22T09:20:21.409Z,71.72
2022-11-22T09:23:24.203Z,72.35
2022-11-22T09:26:27.028Z,72.60
2022-11-22T09:29:29.941Z,72.28
2022-11-22T09:32:33.932Z,72.55
2022-11-22T09:35:36.966Z,72.58
2022-11-22T09:38:40.223Z,72.86
2022-11-22T09:41:55.325Z,72.03
2022-11-22T09:45:16.492Z,72.55
2022-11-22T09:48:22.120Z,72.29
2022-11-22T09:51:33.667Z,73.10
2022-11-22T09:54:57.063Z,73.16
2022-11-22T09:58:51.656Z,72.70
2022-11-22T10:02:17.539Z,72.23
2022-11-22T10:05:29.659Z,70.44
2022-11-22T10:08:35.568Z,70.22
2022-11-22T10:11:45.599Z,69.79
2022-11-22T10:15:04.844Z,68.05
2022-11-22T10:18:20.920Z,62.41
2022-11-22T10:21:23.592Z,59.46
2022-11-22T10:24:28.844Z,58.84
2022-11-22T10:27:32.959Z,60.19
2022-11-22T10:30:41.648Z,61.71
2022-11-22T10:33:52.393Z,63.57
2022-11-22T10:37:07.688Z,64.84
2022-11-22T10:40:16.933Z,64.62
2022-11-22T10:43:36.999Z,65.31
2022-11-22T10:47:01.914Z,65.57
2022-11-22T10:50:23.762Z,65.83
2022-11-22T10:53:32.575Z,65.66
2022-11-22T10:56:50.674Z,67.04
2022-11-22T11:00:11.820Z,67.67
2022-11-22T11:03:30.222Z,68.18
2022-11-22T11:10:20.312Z,68.72
2022-11-22T11:13:43.487Z,69.23
2022-11-22T11:16:47.251Z,68.99
2022-11-22T11:19:52.826Z,68.48
2022-11-22T11:26:26.946Z,68.24
2022-11-22T11:29:38.519Z,68.16
2022-11-22T11:32:53.613Z,67.76
2022-11-22T11:36:06.676Z,67.16
2022-11-22T11:39:21.540Z,66.78
2022-11-22T11:42:28.378Z,67.12
2022-11-22T11:45:30.863Z,67.78
2022-11-22T11:48:38.190Z,67.81
2022-11-22T11:51:55.488Z,68.68
2022-11-22T11:55:01.655Z,69.22
2022-11-22T12:01:39.004Z,69.59
2022-11-22T12:02:14.974Z,69.87
2022-11-22T12:05:00.959Z,69.75
2022-11-22T12:08:30.858Z,69.92
2022-11-22T12:11:45.140Z,70.48
2022-11-22T12:15:10.877Z,71.08
2022-11-22T12:18:48.731Z,71.19
2022-11-22T12:21:54.594Z,71.52
2022-11-22T12:25:31.057Z,72.00
2022-11-22T12:28:29.199Z,72.52
2022-11-22T12:31:39.606Z,72.34
2022-11-22T12:34:55.566Z,71.96
2022-11-22T12:38:14.435Z,71.96
2022-11-22T12:41:21.249Z,72.13
2022-11-22T12:44:26.130Z,72.53
2022-11-22T12:47:41.646Z,72.72
2022-11-22T12:50:48.641Z,72.42
2022-11-22T12:53:55.738Z,72.66
2022-11-22T12:57:02.627Z,72.62
2022-11-22T13:00:13.033Z,72.88
2022-11-22T13:03:24.989Z,73.23
2022-11-22T13:07:03.015Z,73.21
2022-11-22T13:10:14.649Z,73.37
2022-11-22T13:13:36.230Z,73.52
2022-11-22T13:16:39.210Z,74.58
2022-11-22T13:20:06.350Z,75.15
2022-11-22T13:23:41.473Z,74.85
2022-11-22T13:26:56.473Z,75.17
2022-11-22T13:30:01.861Z,75.84
2022-11-22T13:33:06.433Z,76.17
2022-11-22T13:36:37.286Z,76.51
2022-11-22T13:39:48.804Z,76.28
2022-11-22T13:43:18.017Z,76.17
2022-11-22T13:46:50.439Z,76.22
2022-11-22T13:49:54.095Z,76.61
2022-11-22T13:52:56.955Z,76.31
2022-11-22T13:56:28.889Z,76.14
2022-11-22T13:59:32.739Z,76.47
2022-11-22T14:02:36.076Z,76.26
2022-11-22T14:05:41.959Z,76.17
2022-11-22T14:08:44.811Z,76.40
2022-11-22T14:12:01.195Z,77.00
2022-11-22T14:15:44.729Z,77.11
2022-11-22T14:19:08.028Z,77.13
2022-11-22T14:22:20.869Z,78.04
2022-11-22T14:25:42.632Z,78.16
2022-11-22T14:28:47.891Z,77.33
2022-11-22T14:32:03.828Z,78.04
2022-11-22T14:35:06.216Z,78.18
2022-11-22T14:38:10.199Z,77.72
2022-11-22T14:41:27.962Z,77.76
2022-11-22T14:44:34.753Z,77.95
2022-11-22T14:47:52.339Z,77.52
2022-11-22T14:51:04.978Z,77.16
2022-11-22T14:54:33.808Z,77.75
2022-11-22T14:57:37.548Z,78.19
2022-11-22T15:00:57.331Z,78.42
2022-11-22T15:09:16.273Z,78.10
2022-11-22T15:09:22.731Z,77.97
2022-11-22T15:11:49.864Z,77.59
2022-11-22T16:00:27.128Z,77.77
2022-11-22T16:03:38.525Z,77.53
2022-11-22T16:06:43.472Z,77.63
2022-11-22T16:09:51.106Z,77.89
2022-11-22T16:12:54.533Z,78.29
2022-11-22T16:16:05.924Z,77.91
2022-11-22T16:19:25.412Z,78.20
2022-11-22T16:22:33.179Z,78.40
2022-11-22T16:25:57.174Z,78.56
2022-11-22T16:29:26.118Z,78.86
2022-11-22T16:32:34.851Z,78.62
2022-11-22T16:35:38.094Z,77.86
2022-11-22T16:38:41.991Z,78.00
2022-11-22T16:41:44.996Z,77.91
2022-11-22T16:44:50.653Z,77.96
2022-11-22T16:48:16.654Z,77.95
2022-11-22T16:51:29.580Z,77.84
2022-11-22T16:54:32.645Z,77.80
2022-11-22T16:57:37.731Z,77.79
2022-11-22T17:00:41.227Z,77.27
2022-11-22T17:03:44.893Z,77.54
2022-11-22T17:06:49.719Z,77.50
2022-11-22T17:09:53.129Z,77.50
2022-11-22T17:12:55.847Z,77.33
2022-11-22T17:15:58.522Z,77.15
2022-11-22T17:19:01.336Z,77.25
2022-11-22T17:22:06.995Z,77.40
2022-11-22T17:25:13.483Z,76.78
2022-11-22T17:28:16.296Z,77.12
2022-11-22T17:31:20.489Z,76.24
2022-11-22T17:34:23.357Z,75.96
2022-11-22T17:37:29.493Z,76.51
2022-11-22T17:40:32.955Z,76.22
2022-11-22T17:43:37.486Z,76.52
2022-11-22T17:46:40.373Z,76.74
2022-11-22T17:49:43.390Z,75.94
2022-11-22T17:52:46.313Z,75.87
2022-11-22T17:56:09.518Z,75.53
2022-11-22T17:59:12.559Z,75.39
2022-11-22T18:02:15.914Z,75.08
2022-11-22T18:05:19.019Z,75.25
2022-11-22T18:08:21.479Z,75.68
2022-11-22T18:11:24.523Z,75.55
2022-11-22T18:14:28.228Z,75.87
2022-11-22T18:17:34.541Z,75.70
2022-11-22T18:20:37.787Z,75.20
2022-11-22T18:23:40.863Z,74.66
2022-11-22T18:26:43.502Z,74.34
2022-11-22T18:29:46.767Z,74.68
2022-11-22T18:32:49.245Z,74.42
2022-11-22T18:36:07.194Z,74.25
2022-11-22T18:39:09.700Z,74.16
2022-11-22T18:42:15.076Z,74.06
2022-11-22T18:45:18.501Z,73.86
2022-11-22T18:48:21.622Z,74.12
2022-11-22T18:51:24.108Z,74.51
2022-11-22T18:54:27.215Z,75.04
2022-11-22T18:57:29.686Z,75.01
2022-11-22T19:00:32.964Z,74.96
2022-11-22T19:03:35.588Z,75.51
2022-11-22T19:06:38.719Z,76.00
2022-11-22T19:09:41.304Z,75.78
2022-11-22T19:12:44.368Z,76.08
2022-11-22T19:15:46.919Z,76.07
2022-11-22T19:18:50.348Z,75.79
2022-11-22T19:21:52.816Z,75.78
2022-11-22T19:24:56.254Z,76.11
2022-11-22T19:27:58.805Z,75.89
2022-11-22T19:31:05.115Z,75.29
2022-11-22T19:34:07.568Z,75.52
2022-11-22T19:37:11.774Z,75.11
2022-11-22T19:40:14.664Z,75.30
2022-11-22T19:43:18.189Z,75.72
2022-11-22T19:46:21.207Z,76.39
2022-11-22T19:49:24.284Z,77.36
2022-11-22T19:52:27.153Z,77.42
2022-11-22T19:55:30.098Z,77.81
2022-11-22T19:58:33.438Z,77.96
2022-11-22T20:01:36.631Z,77.97
2022-11-22T20:04:39.555Z,78.30
2022-11-22T20:07:42.397Z,78.62
2022-11-22T20:10:45.258Z,78.24
2022-11-22T20:13:50.344Z,77.50
2022-11-22T20:16:53.215Z,77.87
2022-11-22T20:19:56.103Z,77.93
2022-11-22T20:22:59.409Z,78.22
2022-11-22T20:26:09.818Z,78.44
2022-11-22T20:29:13.925Z,78.84
2022-11-22T20:32:17.341Z,78.47
2022-11-22T20:35:20.066Z,78.10
2022-11-22T20:38:22.864Z,78.64
2022-11-22T20:41:28.086Z,78.46
2022-11-22T20:44:33.935Z,78.41
2022-11-22T20:47:36.721Z,78.30
2022-11-22T20:50:39.671Z,78.12
2022-11-22T20:53:43.378Z,78.70
2022-11-22T20:56:46.426Z,78.09
2022-11-22T20:59:49.170Z,78.59
2022-11-22T21:02:51.909Z,78.93
2022-11-22T21:05:55.523Z,78.69
2022-11-22T21:08:58.309Z,79.02
2022-11-22T21:12:01.336Z,78.96
2022-11-22T21:15:04.478Z,79.12
2022-11-22T21:18:24.712Z,78.62
2022-11-22T21:21:29.639Z,78.42
2022-11-22T21:24:32.663Z,79.22
2022-11-22T21:27:35.680Z,79.68
2022-11-22T21:30:38.453Z,80.03
2022-11-22T21:33:42.695Z,80.01
2022-11-22T21:36:45.659Z,80.33
2022-11-22T21:39:48.529Z,80.90
2022-11-22T21:42:51.277Z,81.36
2022-11-22T21:45:54.699Z,81.42
2022-11-22T21:48:57.940Z,81.70
2022-11-22T21:52:00.712Z,81.53
2022-11-22T21:55:03.892Z,81.80
2022-11-22T21:58:06.836Z,82.36
2022-11-22T22:01:14.098Z,82.32
2022-11-22T22:04:17.656Z,82.63
2022-11-22T22:07:44.605Z,82.39
2022-11-22T22:10:43.406Z,82.17
2022-11-22T22:13:46.006Z,82.56
2022-11-22T22:16:49.108Z,82.45
2022-11-22T22:19:52.436Z,82.38
2022-11-22T22:22:57.206Z,82.59
2022-11-22T22:26:01.917Z,82.70
2022-11-22T22:29:05.203Z,82.72
2022-11-22T22:32:10.590Z,82.72
2022-11-22T22:35:13.983Z,83.01
2022-11-22T22:38:16.513Z,83.12
2022-11-22T22:41:19.590Z,83.67
2022-11-22T22:44:22.076Z,83.85
2022-11-22T22:47:25.189Z,83.92
2022-11-22T22:50:27.731Z,83.41
2022-11-22T22:53:31.131Z,83.29
2022-11-22T22:56:33.578Z,83.90
2022-11-22T22:59:37.616Z,83.85
2022-11-22T23:02:40.030Z,84.25
2022-11-22T23:05:43.028Z,84.50
2022-11-22T23:08:48.085Z,84.03
2022-11-22T23:12:09.862Z,84.46
2022-11-22T23:15:12.383Z,84.87
2022-11-22T23:18:15.466Z,84.20
2022-11-22T23:21:17.975Z,84.81
2022-11-22T23:24:21.214Z,84.98
2022-11-22T23:27:23.666Z,84.82
2022-11-22T23:30:27.116Z,84.62
2022-11-22T23:33:29.848Z,84.53
2022-11-22T23:36:38.945Z,84.97
2022-11-22T23:39:43.090Z,84.68
2022-11-22T23:42:46.291Z,84.88
2022-11-22T23:45:48.931Z,84.49
2022-11-22T23:48:56.981Z,85.22
2022-11-22T23:51:59.620Z,84.88
2022-11-22T23:55:02.626Z,84.92
2022-11-22T23:58:05.171Z,84.75
